sensor_id;sensor_type;location;lat;lon;timestamp;pressure;altitude;pressure_sealevel;temperature;humidity
37792;BME280;29527;55.766;37.570;2022-07-23T00:00:47;99768.06;;;18.90;59.46
37792;BME280;29527;55.766;37.570;2022-07-23T00:03:13;99767.41;;;18.88;59.51
37792;BME280;29527;55.766;37.570;2022-07-23T00:05:39;99765.25;;;18.84;59.41
37792;BME280;29527;55.766;37.570;2022-07-23T00:08:06;99774.03;;;18.86;59.59
37792;BME280;29527;55.766;37.570;2022-07-23T00:10:32;99770.66;;;18.84;59.62
37792;BME280;29527;55.766;37.570;2022-07-23T00:12:58;99756.78;;;18.78;59.65
37792;BME280;29527;55.766;37.570;2022-07-23T00:15:24;99764.91;;;18.78;59.62
37792;BME280;29527;55.766;37.570;2022-07-23T00:17:49;99759.50;;;18.78;60.18
37792;BME280;29527;55.766;37.570;2022-07-23T00:20:15;99766.13;;;18.76;59.90
37792;BME280;29527;55.766;37.570;2022-07-23T00:22:52;99768.28;;;18.80;60.27
37792;BME280;29527;55.766;37.570;2022-07-23T00:25:19;99775.66;;;18.72;60.14
37792;BME280;29527;55.766;37.570;2022-07-23T00:27:44;99769.06;;;18.66;60.57
37792;BME280;29527;55.766;37.570;2022-07-23T00:30:11;99777.22;;;18.66;60.46
37792;BME280;29527;55.766;37.570;2022-07-23T00:32:51;99775.97;;;18.69;60.57
37792;BME280;29527;55.766;37.570;2022-07-23T00:35:19;99783.66;;;18.65;60.79
37792;BME280;29527;55.766;37.570;2022-07-23T00:37:45;99775.91;;;18.54;60.84
37792;BME280;29527;55.766;37.570;2022-07-23T00:40:11;99782.19;;;18.54;61.03
37792;BME280;29527;55.766;37.570;2022-07-23T00:42:37;99782.34;;;18.53;61.22
37792;BME280;29527;55.766;37.570;2022-07-23T00:45:03;99770.53;;;18.45;61.43
37792;BME280;29527;55.766;37.570;2022-07-23T00:47:29;99778.50;;;18.47;61.42
37792;BME280;29527;55.766;37.570;2022-07-23T00:49:55;99777.84;;;18.45;61.62
37792;BME280;29527;55.766;37.570;2022-07-23T00:52:20;99725.28;;;18.14;61.62
37792;BME280;29527;55.766;37.570;2022-07-23T00:54:46;99790.88;;;18.41;61.94
37792;BME280;29527;55.766;37.570;2022-07-23T00:57:12;99775.34;;;18.35;61.84
37792;BME280;29527;55.766;37.570;2022-07-23T00:59:41;99785.47;;;18.41;62.10
37792;BME280;29527;55.766;37.570;2022-07-23T01:02:07;99782.44;;;18.36;61.87
37792;BME280;29527;55.766;37.570;2022-07-23T01:04:33;99777.38;;;18.33;62.06
37792;BME280;29527;55.766;37.570;2022-07-23T01:06:58;99779.06;;;18.34;62.14
37792;BME280;29527;55.766;37.570;2022-07-23T01:09:25;99784.16;;;18.29;62.68
37792;BME280;29527;55.766;37.570;2022-07-23T01:11:51;99786.84;;;18.29;62.57
37792;BME280;29527;55.766;37.570;2022-07-23T01:14:18;99789.91;;;18.26;62.47
37792;BME280;29527;55.766;37.570;2022-07-23T01:16:45;99793.84;;;18.23;62.89
37792;BME280;29527;55.766;37.570;2022-07-23T01:19:12;99798.25;;;18.24;63.00
37792;BME280;29527;55.766;37.570;2022-07-23T01:21:43;99792.13;;;18.30;62.90
37792;BME280;29527;55.766;37.570;2022-07-23T01:24:09;99783.84;;;18.24;62.77
37792;BME280;29527;55.766;37.570;2022-07-23T01:26:36;99783.47;;;18.27;62.92
37792;BME280;29527;55.766;37.570;2022-07-23T01:29:02;99776.72;;;18.22;62.74
37792;BME280;29527;55.766;37.570;2022-07-23T01:31:28;99780.09;;;18.25;62.94
37792;BME280;29527;55.766;37.570;2022-07-23T01:33:54;99778.41;;;18.24;63.14
37792;BME280;29527;55.766;37.570;2022-07-23T01:36:20;99780.09;;;18.25;63.31
37792;BME280;29527;55.766;37.570;2022-07-23T01:38:45;99784.34;;;18.27;63.29
37792;BME280;29527;55.766;37.570;2022-07-23T01:41:11;99778.72;;;18.29;63.45
37792;BME280;29527;55.766;37.570;2022-07-23T01:43:36;99778.72;;;18.29;63.46
37792;BME280;29527;55.766;37.570;2022-07-23T01:46:02;99773.50;;;18.27;63.71
37792;BME280;29527;55.766;37.570;2022-07-23T01:48:27;99776.00;;;18.29;63.65
37792;BME280;29527;55.766;37.570;2022-07-23T01:50:52;99767.88;;;18.29;63.74
37792;BME280;29527;55.766;37.570;2022-07-23T01:53:18;99783.47;;;18.35;63.80
37792;BME280;29527;55.766;37.570;2022-07-23T01:55:44;99780.41;;;18.38;63.77
37792;BME280;29527;55.766;37.570;2022-07-23T01:58:10;99777.69;;;18.38;63.61
37792;BME280;29527;55.766;37.570;2022-07-23T02:00:35;99777.13;;;18.43;63.64
37792;BME280;29527;55.766;37.570;2022-07-23T02:03:01;99784.09;;;18.45;63.59
37792;BME280;29527;55.766;37.570;2022-07-23T02:05:27;99782.72;;;18.49;63.62
37792;BME280;29527;55.766;37.570;2022-07-23T02:07:57;99786.94;;;18.52;63.70
37792;BME280;29527;55.766;37.570;2022-07-23T02:10:24;99775.06;;;18.53;63.55
37792;BME280;29527;55.766;37.570;2022-07-23T02:12:50;99770.31;;;18.55;63.51
37792;BME280;29527;55.766;37.570;2022-07-23T02:15:15;99778.59;;;18.62;63.64
37792;BME280;29527;55.766;37.570;2022-07-23T02:17:41;99753.56;;;18.51;63.19
37792;BME280;29527;55.766;37.570;2022-07-23T02:20:07;99775.28;;;18.75;63.03
37792;BME280;29527;55.766;37.570;2022-07-23T02:22:33;99779.09;;;18.89;62.86
37792;BME280;29527;55.766;37.570;2022-07-23T02:24:59;99772.09;;;19.03;62.64
37792;BME280;29527;55.766;37.570;2022-07-23T02:27:24;99767.91;;;19.15;62.13
37792;BME280;29527;55.766;37.570;2022-07-23T02:29:50;99776.66;;;19.26;62.07
37792;BME280;29527;55.766;37.570;2022-07-23T02:32:16;99782.81;;;19.43;61.74
37792;BME280;29527;55.766;37.570;2022-07-23T02:34:41;99764.44;;;19.45;61.44
37792;BME280;29527;55.766;37.570;2022-07-23T02:37:07;99787.56;;;19.79;60.61
37792;BME280;29527;55.766;37.570;2022-07-23T02:39:34;99788.06;;;19.98;60.17
37792;BME280;29527;55.766;37.570;2022-07-23T02:42:00;99760.50;;;20.01;59.79
37792;BME280;29527;55.766;37.570;2022-07-23T02:44:26;99768.50;;;20.17;59.82
37792;BME280;29527;55.766;37.570;2022-07-23T02:46:51;99771.69;;;20.21;59.44
37792;BME280;29527;55.766;37.570;2022-07-23T02:49:17;99776.09;;;20.22;59.81
37792;BME280;29527;55.766;37.570;2022-07-23T02:51:42;99775.22;;;20.21;60.14
37792;BME280;29527;55.766;37.570;2022-07-23T02:54:08;99771.84;;;20.19;59.90
37792;BME280;29527;55.766;37.570;2022-07-23T02:56:33;99773.00;;;20.25;59.30
37792;BME280;29527;55.766;37.570;2022-07-23T02:58:59;99777.38;;;20.26;59.55
37792;BME280;29527;55.766;37.570;2022-07-23T03:01:24;99771.78;;;20.28;59.83
37792;BME280;29527;55.766;37.570;2022-07-23T03:03:50;99781.22;;;20.32;59.49
37792;BME280;29527;55.766;37.570;2022-07-23T03:06:16;99769.06;;;20.28;59.05
37792;BME280;29527;55.766;37.570;2022-07-23T03:08:41;99783.06;;;20.46;58.90
37792;BME280;29527;55.766;37.570;2022-07-23T03:11:07;99763.78;;;20.41;58.61
37792;BME280;29527;55.766;37.570;2022-07-23T03:13:39;99788.31;;;20.63;58.57
37792;BME280;29527;55.766;37.570;2022-07-23T03:16:05;99787.81;;;20.74;58.59
37792;BME280;29527;55.766;37.570;2022-07-23T03:18:32;99788.00;;;20.88;57.90
37792;BME280;29527;55.766;37.570;2022-07-23T03:20:58;99775.56;;;21.00;57.45
37792;BME280;29527;55.766;37.570;2022-07-23T03:23:23;99778.88;;;21.17;57.54
37792;BME280;29527;55.766;37.570;2022-07-23T03:25:49;99778.16;;;21.30;56.74
37792;BME280;29527;55.766;37.570;2022-07-23T03:28:15;99783.81;;;21.57;56.18
37792;BME280;29527;55.766;37.570;2022-07-23T03:30:45;99793.84;;;22.07;54.76
37792;BME280;29527;55.766;37.570;2022-07-23T03:33:16;99772.53;;;22.59;52.83
37792;BME280;29527;55.766;37.570;2022-07-23T03:35:45;99784.69;;;23.32;51.04
37792;BME280;29527;55.766;37.570;2022-07-23T03:38:12;99795.56;;;24.20;48.72
37792;BME280;29527;55.766;37.570;2022-07-23T03:40:37;99796.50;;;24.98;46.54
37792;BME280;29527;55.766;37.570;2022-07-23T03:43:03;99775.41;;;25.63;44.82
37792;BME280;29527;55.766;37.570;2022-07-23T03:45:28;99782.50;;;26.33;43.53
37792;BME280;29527;55.766;37.570;2022-07-23T03:47:54;99778.44;;;27.04;41.80
37792;BME280;29527;55.766;37.570;2022-07-23T03:50:20;99771.41;;;27.74;40.40
37792;BME280;29527;55.766;37.570;2022-07-23T03:52:45;99781.81;;;28.32;38.73
37792;BME280;29527;55.766;37.570;2022-07-23T03:55:11;99781.63;;;28.91;37.85
37792;BME280;29527;55.766;37.570;2022-07-23T03:57:36;99782.31;;;29.45;36.78
37792;BME280;29527;55.766;37.570;2022-07-23T04:00:03;99776.66;;;29.91;35.51
37792;BME280;29527;55.766;37.570;2022-07-23T04:02:30;99781.41;;;30.35;34.71
37792;BME280;29527;55.766;37.570;2022-07-23T04:04:56;99771.41;;;31.01;33.58
37792;BME280;29527;55.766;37.570;2022-07-23T04:07:21;99780.66;;;31.77;32.60
37792;BME280;29527;55.766;37.570;2022-07-23T04:09:47;99765.94;;;32.19;31.11
37792;BME280;29527;55.766;37.570;2022-07-23T04:12:13;99782.88;;;32.97;30.28
37792;BME280;29527;55.766;37.570;2022-07-23T04:14:39;99776.78;;;33.68;28.73
37792;BME280;29527;55.766;37.570;2022-07-23T04:17:04;99777.81;;;34.18;27.68
37792;BME280;29527;55.766;37.570;2022-07-23T04:19:30;99787.09;;;34.64;26.88
37792;BME280;29527;55.766;37.570;2022-07-23T04:21:57;99795.16;;;34.66;27.14
37792;BME280;29527;55.766;37.570;2022-07-23T04:24:22;99769.84;;;34.67;26.66
37792;BME280;29527;55.766;37.570;2022-07-23T04:26:48;99785.22;;;35.04;25.92
37792;BME280;29527;55.766;37.570;2022-07-23T04:29:13;99790.16;;;35.13;25.97
37792;BME280;29527;55.766;37.570;2022-07-23T04:31:39;99788.13;;;35.58;25.45
37792;BME280;29527;55.766;37.570;2022-07-23T04:34:04;99791.25;;;36.11;24.53
37792;BME280;29527;55.766;37.570;2022-07-23T04:36:30;99784.00;;;36.34;23.86
37792;BME280;29527;55.766;37.570;2022-07-23T04:38:56;99801.75;;;37.06;23.12
37792;BME280;29527;55.766;37.570;2022-07-23T04:41:21;99797.31;;;38.04;22.35
37792;BME280;29527;55.766;37.570;2022-07-23T04:43:47;99786.06;;;38.74;20.85
37792;BME280;29527;55.766;37.570;2022-07-23T04:46:12;99794.53;;;38.97;20.63
37792;BME280;29527;55.766;37.570;2022-07-23T04:48:39;99793.03;;;39.59;20.37
37792;BME280;29527;55.766;37.570;2022-07-23T04:51:05;99789.28;;;39.73;19.99
37792;BME280;29527;55.766;37.570;2022-07-23T04:53:31;99787.31;;;39.96;19.54
37792;BME280;29527;55.766;37.570;2022-07-23T04:55:56;99787.31;;;40.45;18.70
37792;BME280;29527;55.766;37.570;2022-07-23T04:58:22;99781.22;;;40.61;18.62
37792;BME280;29527;55.766;37.570;2022-07-23T05:00:47;99776.97;;;40.90;18.29
37792;BME280;29527;55.766;37.570;2022-07-23T05:03:13;99781.88;;;41.64;17.71
37792;BME280;29527;55.766;37.570;2022-07-23T05:05:38;99772.59;;;42.50;16.75
37792;BME280;29527;55.766;37.570;2022-07-23T05:08:04;99768.22;;;43.16;15.77
37792;BME280;29527;55.766;37.570;2022-07-23T05:10:30;99759.97;;;43.78;15.34
37792;BME280;29527;55.766;37.570;2022-07-23T05:12:55;99762.84;;;44.15;15.43
37792;BME280;29527;55.766;37.570;2022-07-23T05:15:21;99763.72;;;44.44;14.84
37792;BME280;29527;55.766;37.570;2022-07-23T05:17:46;99763.28;;;44.30;14.93
37792;BME280;29527;55.766;37.570;2022-07-23T05:20:12;99768.47;;;44.28;14.59
37792;BME280;29527;55.766;37.570;2022-07-23T05:22:38;99759.38;;;44.59;14.56
37792;BME280;29527;55.766;37.570;2022-07-23T05:25:04;99751.56;;;45.10;14.27
37792;BME280;29527;55.766;37.570;2022-07-23T05:27:30;99762.34;;;45.81;13.53
37792;BME280;29527;55.766;37.570;2022-07-23T05:29:56;99772.56;;;46.18;13.15
37792;BME280;29527;55.766;37.570;2022-07-23T05:32:21;99765.88;;;46.62;13.05
37792;BME280;29527;55.766;37.570;2022-07-23T05:34:47;99768.41;;;46.86;12.75
37792;BME280;29527;55.766;37.570;2022-07-23T05:37:12;99760.88;;;46.19;12.96
37792;BME280;29527;55.766;37.570;2022-07-23T05:39:37;99759.50;;;45.97;13.26
37792;BME280;29527;55.766;37.570;2022-07-23T05:42:03;99759.31;;;46.57;12.68
37792;BME280;29527;55.766;37.570;2022-07-23T05:44:28;99755.63;;;46.73;12.59
37792;BME280;29527;55.766;37.570;2022-07-23T05:46:54;99741.41;;;46.89;11.92
37792;BME280;29527;55.766;37.570;2022-07-23T05:49:19;99757.75;;;47.19;11.96
37792;BME280;29527;55.766;37.570;2022-07-23T05:51:45;99753.78;;;47.67;11.94
37792;BME280;29527;55.766;37.570;2022-07-23T05:54:10;99752.94;;;48.40;11.71
37792;BME280;29527;55.766;37.570;2022-07-23T05:56:36;99763.63;;;49.15;10.77
37792;BME280;29527;55.766;37.570;2022-07-23T05:59:01;99758.03;;;49.64;10.34
37792;BME280;29527;55.766;37.570;2022-07-23T06:01:27;99756.03;;;49.68;9.97
37792;BME280;29527;55.766;37.570;2022-07-23T06:03:52;99755.72;;;50.33;10.00
37792;BME280;29527;55.766;37.570;2022-07-23T06:06:18;99754.03;;;51.02;9.66
37792;BME280;29527;55.766;37.570;2022-07-23T06:08:43;99740.66;;;51.86;9.07
37792;BME280;29527;55.766;37.570;2022-07-23T06:11:09;99749.56;;;52.35;8.33
37792;BME280;29527;55.766;37.570;2022-07-23T06:13:34;99747.81;;;52.71;8.33
37792;BME280;29527;55.766;37.570;2022-07-23T06:16:00;99745.50;;;52.18;8.18
37792;BME280;29527;55.766;37.570;2022-07-23T06:18:26;99752.09;;;51.79;8.55
37792;BME280;29527;55.766;37.570;2022-07-23T06:20:51;99748.31;;;52.40;8.47
37792;BME280;29527;55.766;37.570;2022-07-23T06:23:16;99739.66;;;52.69;7.79
37792;BME280;29527;55.766;37.570;2022-07-23T06:25:42;99737.16;;;52.82;7.74
37792;BME280;29527;55.766;37.570;2022-07-23T06:28:07;99736.09;;;53.18;7.75
37792;BME280;29527;55.766;37.570;2022-07-23T06:30:33;99727.34;;;53.92;7.31
37792;BME280;29527;55.766;37.570;2022-07-23T06:32:58;99746.13;;;54.70;6.97
37792;BME280;29527;55.766;37.570;2022-07-23T06:35:24;99742.09;;;55.22;6.83
37792;BME280;29527;55.766;37.570;2022-07-23T06:37:49;99743.75;;;55.23;6.68
37792;BME280;29527;55.766;37.570;2022-07-23T06:40:15;99745.69;;;55.03;6.51
37792;BME280;29527;55.766;37.570;2022-07-23T06:42:40;99732.94;;;54.76;6.95
37792;BME280;29527;55.766;37.570;2022-07-23T06:45:06;99733.97;;;54.59;6.82
37792;BME280;29527;55.766;37.570;2022-07-23T06:47:32;99724.03;;;54.67;7.23
37792;BME280;29527;55.766;37.570;2022-07-23T06:49:58;99733.13;;;53.85;7.46
37792;BME280;29527;55.766;37.570;2022-07-23T06:52:23;99735.47;;;53.98;7.72
37792;BME280;29527;55.766;37.570;2022-07-23T06:54:49;99732.97;;;54.73;6.42
37792;BME280;29527;55.766;37.570;2022-07-23T06:57:15;99730.19;;;55.24;6.41
37792;BME280;29527;55.766;37.570;2022-07-23T06:59:40;99731.13;;;54.90;6.45
37792;BME280;29527;55.766;37.570;2022-07-23T07:02:07;99735.97;;;55.20;6.44
37792;BME280;29527;55.766;37.570;2022-07-23T07:04:33;99730.47;;;55.81;6.22
37792;BME280;29527;55.766;37.570;2022-07-23T07:06:58;99725.94;;;55.84;6.37
37792;BME280;29527;55.766;37.570;2022-07-23T07:09:24;99728.53;;;55.98;6.29
37792;BME280;29527;55.766;37.570;2022-07-23T07:11:49;99726.97;;;56.38;5.85
37792;BME280;29527;55.766;37.570;2022-07-23T07:14:15;99732.97;;;56.03;5.78
37792;BME280;29527;55.766;37.570;2022-07-23T07:16:40;99726.00;;;56.24;5.40
37792;BME280;29527;55.766;37.570;2022-07-23T07:19:06;99724.16;;;56.91;5.90
37792;BME280;29527;55.766;37.570;2022-07-23T07:21:31;99722.41;;;57.63;5.12
37792;BME280;29527;55.766;37.570;2022-07-23T07:23:57;99723.78;;;58.05;4.60
37792;BME280;29527;55.766;37.570;2022-07-23T07:26:22;99730.47;;;58.02;4.23
37792;BME280;29527;55.766;37.570;2022-07-23T07:28:47;99721.59;;;57.13;5.00
37792;BME280;29527;55.766;37.570;2022-07-23T07:31:13;99710.06;;;55.99;5.52
37792;BME280;29527;55.766;37.570;2022-07-23T07:33:38;99716.72;;;56.16;5.92
37792;BME280;29527;55.766;37.570;2022-07-23T07:36:04;99714.56;;;56.41;5.06
37792;BME280;29527;55.766;37.570;2022-07-23T07:38:30;99712.09;;;53.61;6.58
37792;BME280;29527;55.766;37.570;2022-07-23T07:40:55;99709.66;;;51.99;8.05
37792;BME280;29527;55.766;37.570;2022-07-23T07:43:21;99719.66;;;52.65;7.51
37792;BME280;29527;55.766;37.570;2022-07-23T07:45:46;99713.84;;;53.93;6.50
37792;BME280;29527;55.766;37.570;2022-07-23T07:48:12;99721.06;;;55.05;6.25
37792;BME280;29527;55.766;37.570;2022-07-23T07:50:37;99717.81;;;56.43;5.63
37792;BME280;29527;55.766;37.570;2022-07-23T07:53:03;99716.34;;;57.28;4.93
37792;BME280;29527;55.766;37.570;2022-07-23T07:55:28;99718.03;;;55.44;5.49
37792;BME280;29527;55.766;37.570;2022-07-23T07:57:54;99699.50;;;51.33;7.95
37792;BME280;29527;55.766;37.570;2022-07-23T08:00:19;99711.34;;;47.74;10.32
37792;BME280;29527;55.766;37.570;2022-07-23T08:02:50;99724.44;;;44.64;13.00
37792;BME280;29527;55.766;37.570;2022-07-23T08:05:25;99712.47;;;43.43;13.84
37792;BME280;29527;55.766;37.570;2022-07-23T08:07:51;99707.88;;;44.50;13.47
37792;BME280;29527;55.766;37.570;2022-07-23T08:10:17;99710.78;;;44.95;13.01
37792;BME280;29527;55.766;37.570;2022-07-23T08:12:51;99708.75;;;44.26;12.88
37792;BME280;29527;55.766;37.570;2022-07-23T08:15:19;99690.72;;;44.55;13.19
37792;BME280;29527;55.766;37.570;2022-07-23T08:17:47;99714.06;;;45.57;12.40
37792;BME280;29527;55.766;37.570;2022-07-23T08:20:14;99713.47;;;46.32;11.68
37792;BME280;29527;55.766;37.570;2022-07-23T08:22:59;99702.81;;;47.70;10.80
37792;BME280;29527;55.766;37.570;2022-07-23T08:25:33;99705.59;;;47.43;10.98
37792;BME280;29527;55.766;37.570;2022-07-23T08:28:01;99688.28;;;45.59;11.97
37792;BME280;29527;55.766;37.570;2022-07-23T08:30:28;99711.13;;;43.74;13.35
37792;BME280;29527;55.766;37.570;2022-07-23T08:32:59;99706.31;;;42.10;14.67
37792;BME280;29527;55.766;37.570;2022-07-23T08:35:31;99705.81;;;40.86;16.01
37792;BME280;29527;55.766;37.570;2022-07-23T08:37:58;99675.00;;;39.43;18.01
37792;BME280;29527;55.766;37.570;2022-07-23T08:40:29;99701.19;;;38.42;18.77
37792;BME280;29527;55.766;37.570;2022-07-23T08:42:55;99695.22;;;37.04;20.06
37792;BME280;29527;55.766;37.570;2022-07-23T08:45:22;99698.81;;;35.79;21.71
37792;BME280;29527;55.766;37.570;2022-07-23T08:47:54;99704.09;;;34.87;23.05
37792;BME280;29527;55.766;37.570;2022-07-23T08:50:20;99681.22;;;34.05;24.18
37792;BME280;29527;55.766;37.570;2022-07-23T08:52:48;99697.38;;;33.72;24.82
37792;BME280;29527;55.766;37.570;2022-07-23T08:55:16;99695.72;;;33.76;24.88
37792;BME280;29527;55.766;37.570;2022-07-23T08:57:42;99680.16;;;33.85;24.44
37792;BME280;29527;55.766;37.570;2022-07-23T09:00:08;99681.78;;;34.02;24.19
37792;BME280;29527;55.766;37.570;2022-07-23T09:02:41;99682.56;;;34.13;23.58
37792;BME280;29527;55.766;37.570;2022-07-23T09:05:08;99682.56;;;34.13;24.34
37792;BME280;29527;55.766;37.570;2022-07-23T09:07:35;99674.13;;;34.28;24.05
37792;BME280;29527;55.766;37.570;2022-07-23T09:10:10;99689.88;;;34.43;23.75
37792;BME280;29527;55.766;37.570;2022-07-23T09:12:37;99679.75;;;34.18;24.06
37792;BME280;29527;55.766;37.570;2022-07-23T09:15:06;99686.25;;;33.87;24.10
37792;BME280;29527;55.766;37.570;2022-07-23T09:17:42;99685.47;;;33.61;23.94
37792;BME280;29527;55.766;37.570;2022-07-23T09:20:13;99677.47;;;33.23;24.99
37792;BME280;29527;55.766;37.570;2022-07-23T09:22:45;99678.31;;;33.13;24.25
37792;BME280;29527;55.766;37.570;2022-07-23T09:25:13;99682.47;;;32.95;24.36
37792;BME280;29527;55.766;37.570;2022-07-23T09:27:56;99688.31;;;33.09;24.52
37792;BME280;29527;55.766;37.570;2022-07-23T09:30:25;99680.81;;;32.84;24.54
37792;BME280;29527;55.766;37.570;2022-07-23T09:33:09;99676.91;;;32.74;25.57
37792;BME280;29527;55.766;37.570;2022-07-23T09:38:09;99672.16;;;32.44;26.10
37792;BME280;29527;55.766;37.570;2022-07-23T09:40:35;99678.53;;;32.44;26.51
37792;BME280;29527;55.766;37.570;2022-07-23T09:43:00;99674.94;;;32.49;26.98
37792;BME280;29527;55.766;37.570;2022-07-23T09:45:25;99671.66;;;32.68;26.40
37792;BME280;29527;55.766;37.570;2022-07-23T09:48:10;99673.34;;;33.00;25.93
37792;BME280;29527;55.766;37.570;2022-07-23T09:50:35;99668.06;;;32.83;26.66
37792;BME280;29527;55.766;37.570;2022-07-23T09:53:01;99664.66;;;32.49;26.43
37792;BME280;29527;55.766;37.570;2022-07-23T09:55:32;99668.28;;;32.45;26.66
37792;BME280;29527;55.766;37.570;2022-07-23T09:58:06;99667.69;;;32.38;26.34
37792;BME280;29527;55.766;37.570;2022-07-23T10:00:40;99640.00;;;32.38;26.24
37792;BME280;29527;55.766;37.570;2022-07-23T10:03:06;99668.06;;;32.83;26.08
37792;BME280;29527;55.766;37.570;2022-07-23T10:05:35;99661.16;;;33.16;25.37
37792;BME280;29527;55.766;37.570;2022-07-23T10:08:02;99660.81;;;33.44;25.02
37792;BME280;29527;55.766;37.570;2022-07-23T10:10:28;99630.28;;;33.54;25.43
37792;BME280;29527;55.766;37.570;2022-07-23T10:12:55;99652.41;;;33.75;24.58
37792;BME280;29527;55.766;37.570;2022-07-23T10:15:30;99646.91;;;33.59;25.00
37792;BME280;29527;55.766;37.570;2022-07-23T10:17:56;99651.13;;;33.31;25.53
37792;BME280;29527;55.766;37.570;2022-07-23T10:20:21;99654.50;;;33.02;26.56
37792;BME280;29527;55.766;37.570;2022-07-23T10:39:15;99637.00;;;33.01;25.85
37792;BME280;29527;55.766;37.570;2022-07-23T10:41:42;99622.31;;;33.06;26.23
37792;BME280;29527;55.766;37.570;2022-07-23T10:46:58;99624.44;;;33.56;25.33
37792;BME280;29527;55.766;37.570;2022-07-23T10:49:33;99617.53;;;33.53;24.96
37792;BME280;29527;55.766;37.570;2022-07-23T10:52:25;99624.09;;;33.73;24.45
37792;BME280;29527;55.766;37.570;2022-07-23T10:54:52;99608.63;;;33.51;24.49
37792;BME280;29527;55.766;37.570;2022-07-23T10:57:26;99615.31;;;33.40;24.60
37792;BME280;29527;55.766;37.570;2022-07-23T11:02:33;99615.94;;;32.95;25.92
37792;BME280;29527;55.766;37.570;2022-07-23T11:05:04;99612.03;;;32.70;26.15
37792;BME280;29527;55.766;37.570;2022-07-23T11:07:30;99604.81;;;32.43;26.82
37792;BME280;29527;55.766;37.570;2022-07-23T11:09:55;99607.78;;;32.05;26.86
37792;BME280;29527;55.766;37.570;2022-07-23T11:15:03;99621.63;;;31.47;27.47
37792;BME280;29527;55.766;37.570;2022-07-23T11:17:34;99611.38;;;31.10;28.49
37792;BME280;29527;55.766;37.570;2022-07-23T11:25:12;99617.22;;;30.75;29.18
37792;BME280;29527;55.766;37.570;2022-07-23T11:27:44;99621.00;;;30.64;29.10
37792;BME280;29527;55.766;37.570;2022-07-23T11:35:37;99616.94;;;30.44;29.91
37792;BME280;29527;55.766;37.570;2022-07-23T11:40:30;99604.56;;;30.25;30.26
37792;BME280;29527;55.766;37.570;2022-07-23T11:42:59;99607.34;;;30.25;29.72
37792;BME280;29527;55.766;37.570;2022-07-23T11:45:31;99605.75;;;30.34;29.68
37792;BME280;29527;55.766;37.570;2022-07-23T11:47:57;99601.34;;;30.33;29.54
37792;BME280;29527;55.766;37.570;2022-07-23T11:50:24;99605.03;;;30.44;29.40
37792;BME280;29527;55.766;37.570;2022-07-23T11:52:51;99591.94;;;30.34;29.67
37792;BME280;29527;55.766;37.570;2022-07-23T11:55:16;99600.19;;;30.29;29.79
37792;BME280;29527;55.766;37.570;2022-07-23T11:57:42;99596.66;;;30.33;29.07
37792;BME280;29527;55.766;37.570;2022-07-23T12:02:37;99572.34;;;30.30;29.26
37792;BME280;29527;55.766;37.570;2022-07-23T12:05:03;99588.81;;;30.53;28.91
37792;BME280;29527;55.766;37.570;2022-07-23T12:07:41;99584.59;;;30.72;28.58
37792;BME280;29527;55.766;37.570;2022-07-23T12:10:30;99583.31;;;30.85;28.35
37792;BME280;29527;55.766;37.570;2022-07-23T12:13:00;99584.06;;;30.75;29.28
37792;BME280;29527;55.766;37.570;2022-07-23T12:17:54;99564.97;;;30.74;29.25
37792;BME280;29527;55.766;37.570;2022-07-23T12:20:22;99579.13;;;30.83;29.11
37792;BME280;29527;55.766;37.570;2022-07-23T12:22:51;99573.84;;;30.76;28.88
37792;BME280;29527;55.766;37.570;2022-07-23T12:25:20;99563.44;;;30.56;29.25
37792;BME280;29527;55.766;37.570;2022-07-23T12:27:59;99561.69;;;30.44;29.52
37792;BME280;29527;55.766;37.570;2022-07-23T12:31:10;99565.84;;;30.47;29.87
37792;BME280;29527;55.766;37.570;2022-07-23T12:33:24;99559.03;;;30.60;29.60
37792;BME280;29527;55.766;37.570;2022-07-23T12:35:52;99565.53;;;30.43;29.27
37792;BME280;29527;55.766;37.570;2022-07-23T12:38:21;99542.31;;;30.12;29.13
37792;BME280;29527;55.766;37.570;2022-07-23T12:40:57;99537.63;;;30.12;29.18
37792;BME280;29527;55.766;37.570;2022-07-23T12:43:29;99562.63;;;30.28;29.41
37792;BME280;29527;55.766;37.570;2022-07-23T12:46:11;99558.03;;;30.39;28.95
37792;BME280;29527;55.766;37.570;2022-07-23T12:48:39;99544.47;;;30.37;29.73
37792;BME280;29527;55.766;37.570;2022-07-23T12:51:08;99540.69;;;30.43;28.87
37792;BME280;29527;55.766;37.570;2022-07-23T12:53:41;99546.31;;;30.59;29.20
37792;BME280;29527;55.766;37.570;2022-07-23T12:58:51;99544.59;;;30.47;29.28
37792;BME280;29527;55.766;37.570;2022-07-23T13:04:01;99542.31;;;30.39;29.57
37792;BME280;29527;55.766;37.570;2022-07-23T13:06:49;99543.34;;;30.33;29.75
37792;BME280;29527;55.766;37.570;2022-07-23T13:09:17;99548.91;;;30.05;30.88
37792;BME280;29527;55.766;37.570;2022-07-23T13:11:44;99534.66;;;29.91;30.46
37792;BME280;29527;55.766;37.570;2022-07-23T13:14:11;99537.91;;;29.88;30.84
37792;BME280;29527;55.766;37.570;2022-07-23T13:16:37;99537.59;;;29.85;30.46
37792;BME280;29527;55.766;37.570;2022-07-23T13:19:02;99515.31;;;29.64;30.59
37792;BME280;29527;55.766;37.570;2022-07-23T13:21:29;99539.72;;;29.77;30.65
37792;BME280;29527;55.766;37.570;2022-07-23T13:23:55;99531.72;;;29.76;30.44
37792;BME280;29527;55.766;37.570;2022-07-23T13:26:21;99537.81;;;29.78;30.48
37792;BME280;29527;55.766;37.570;2022-07-23T13:28:46;99528.47;;;29.84;30.62
37792;BME280;29527;55.766;37.570;2022-07-23T13:31:13;99538.22;;;29.92;30.61
37792;BME280;29527;55.766;37.570;2022-07-23T13:33:38;99527.56;;;30.01;30.11
37792;BME280;29527;55.766;37.570;2022-07-23T13:36:04;99529.91;;;30.14;29.50
37792;BME280;29527;55.766;37.570;2022-07-23T13:38:30;99498.16;;;30.12;29.23
37792;BME280;29527;55.766;37.570;2022-07-23T13:40:55;99526.00;;;30.38;28.70
37792;BME280;29527;55.766;37.570;2022-07-23T13:43:23;99497.78;;;30.30;28.85